sensor_id;sensor_type;location;lat;lon;timestamp;P1;durP1;ratioP1;P2;durP2;ratioP2
29788;SDS011;64899;42.660;23.268;2024-03-02T00:00:11;35.33;;;21.00;;
29788;SDS011;64899;42.660;23.268;2024-03-02T00:02:41;39.53;;;21.33;;
29788;SDS011;64899;42.660;23.268;2024-03-02T00:05:06;39.67;;;22.45;;
29788;SDS011;64899;42.660;23.268;2024-03-02T00:07:32;41.38;;;20.85;;
29788;SDS011;64899;42.660;23.268;2024-03-02T00:09:58;41.92;;;21.35;;
29788;SDS011;64899;42.660;23.268;2024-03-02T00:12:23;39.22;;;21.23;;
29788;SDS011;64899;42.660;23.268;2024-03-02T00:14:48;36.55;;;21.10;;
29788;SDS011;64899;42.660;23.268;2024-03-02T00:17:17;38.78;;;20.42;;
29788;SDS011;64899;42.660;23.268;2024-03-02T00:19:49;36.55;;;20.77;;
29788;SDS011;64899;42.660;23.268;2024-03-02T00:22:14;46.05;;;22.00;;
29788;SDS011;64899;42.660;23.268;2024-03-02T00:24:40;39.40;;;20.50;;
29788;SDS011;64899;42.660;23.268;2024-03-02T00:27:05;36.97;;;19.90;;
29788;SDS011;64899;42.660;23.268;2024-03-02T00:29:32;34.85;;;21.23;;
29788;SDS011;64899;42.660;23.268;2024-03-02T00:31:58;36.60;;;20.65;;
29788;SDS011;64899;42.660;23.268;2024-03-02T00:34:23;37.20;;;20.45;;
29788;SDS011;64899;42.660;23.268;2024-03-02T00:36:48;35.90;;;19.58;;
29788;SDS011;64899;42.660;23.268;2024-03-02T00:39:14;40.65;;;20.58;;
29788;SDS011;64899;42.660;23.268;2024-03-02T00:41:40;37.22;;;20.65;;
29788;SDS011;64899;42.660;23.268;2024-03-02T00:44:07;38.45;;;20.40;;
29788;SDS011;64899;42.660;23.268;2024-03-02T00:46:36;38.47;;;20.70;;
29788;SDS011;64899;42.660;23.268;2024-03-02T00:49:03;38.88;;;20.67;;
29788;SDS011;64899;42.660;23.268;2024-03-02T00:51:30;36.97;;;20.55;;
29788;SDS011;64899;42.660;23.268;2024-03-02T00:54:00;38.00;;;20.38;;
29788;SDS011;64899;42.660;23.268;2024-03-02T00:56:29;38.05;;;20.73;;
29788;SDS011;64899;42.660;23.268;2024-03-02T00:58:55;39.97;;;19.77;;
29788;SDS011;64899;42.660;23.268;2024-03-02T01:01:20;36.55;;;19.80;;
29788;SDS011;64899;42.660;23.268;2024-03-02T01:03:46;38.03;;;19.98;;
29788;SDS011;64899;42.660;23.268;2024-03-02T01:06:11;38.40;;;21.50;;
29788;SDS011;64899;42.660;23.268;2024-03-02T01:08:37;39.55;;;21.17;;
29788;SDS011;64899;42.660;23.268;2024-03-02T01:11:03;38.90;;;21.67;;
29788;SDS011;64899;42.660;23.268;2024-03-02T01:13:29;41.42;;;21.02;;
29788;SDS011;64899;42.660;23.268;2024-03-02T01:15:54;38.25;;;22.35;;
29788;SDS011;64899;42.660;23.268;2024-03-02T01:18:20;40.22;;;21.77;;
29788;SDS011;64899;42.660;23.268;2024-03-02T01:20:47;43.00;;;21.42;;
29788;SDS011;64899;42.660;23.268;2024-03-02T01:23:12;44.83;;;21.98;;
29788;SDS011;64899;42.660;23.268;2024-03-02T01:25:38;40.00;;;21.67;;
29788;SDS011;64899;42.660;23.268;2024-03-02T01:28:03;41.78;;;21.55;;
29788;SDS011;64899;42.660;23.268;2024-03-02T01:30:29;39.50;;;21.90;;
29788;SDS011;64899;42.660;23.268;2024-03-02T01:32:54;40.40;;;21.15;;
29788;SDS011;64899;42.660;23.268;2024-03-02T01:35:20;39.03;;;20.48;;
29788;SDS011;64899;42.660;23.268;2024-03-02T01:37:45;39.58;;;20.60;;
29788;SDS011;64899;42.660;23.268;2024-03-02T01:40:11;40.28;;;21.50;;
29788;SDS011;64899;42.660;23.268;2024-03-02T01:42:37;40.72;;;21.38;;
29788;SDS011;64899;42.660;23.268;2024-03-02T01:45:05;37.47;;;19.48;;
29788;SDS011;64899;42.660;23.268;2024-03-02T01:47:31;37.97;;;19.27;;
29788;SDS011;64899;42.660;23.268;2024-03-02T01:49:57;39.25;;;20.15;;
29788;SDS011;64899;42.660;23.268;2024-03-02T01:52:23;38.28;;;19.75;;
29788;SDS011;64899;42.660;23.268;2024-03-02T01:54:49;37.80;;;21.20;;
29788;SDS011;64899;42.660;23.268;2024-03-02T01:57:14;36.40;;;18.92;;
29788;SDS011;64899;42.660;23.268;2024-03-02T01:59:39;35.25;;;18.83;;
29788;SDS011;64899;42.660;23.268;2024-03-02T02:02:05;34.20;;;18.13;;
29788;SDS011;64899;42.660;23.268;2024-03-02T02:04:30;37.15;;;19.05;;
29788;SDS011;64899;42.660;23.268;2024-03-02T02:06:56;32.33;;;17.38;;
29788;SDS011;64899;42.660;23.268;2024-03-02T02:09:21;35.08;;;20.35;;
29788;SDS011;64899;42.660;23.268;2024-03-02T02:11:47;41.17;;;19.38;;
29788;SDS011;64899;42.660;23.268;2024-03-02T02:14:12;39.50;;;21.30;;
29788;SDS011;64899;42.660;23.268;2024-03-02T02:16:38;36.65;;;19.23;;
29788;SDS011;64899;42.660;23.268;2024-03-02T02:19:03;38.63;;;21.20;;
29788;SDS011;64899;42.660;23.268;2024-03-02T02:21:29;37.33;;;21.05;;
29788;SDS011;64899;42.660;23.268;2024-03-02T02:23:54;37.45;;;19.15;;
29788;SDS011;64899;42.660;23.268;2024-03-02T02:26:19;36.80;;;19.50;;
29788;SDS011;64899;42.660;23.268;2024-03-02T02:28:45;40.15;;;20.60;;
29788;SDS011;64899;42.660;23.268;2024-03-02T02:31:13;35.00;;;18.65;;
29788;SDS011;64899;42.660;23.268;2024-03-02T02:33:39;31.95;;;16.88;;
29788;SDS011;64899;42.660;23.268;2024-03-02T02:36:05;29.58;;;17.05;;
29788;SDS011;64899;42.660;23.268;2024-03-02T02:38:31;33.83;;;17.85;;
29788;SDS011;64899;42.660;23.268;2024-03-02T02:40:57;32.63;;;17.98;;
29788;SDS011;64899;42.660;23.268;2024-03-02T02:43:23;35.42;;;18.85;;
29788;SDS011;64899;42.660;23.268;2024-03-02T02:45:48;31.05;;;17.88;;
29788;SDS011;64899;42.660;23.268;2024-03-02T02:48:13;35.58;;;18.27;;
29788;SDS011;64899;42.660;23.268;2024-03-02T02:50:39;35.55;;;17.50;;
29788;SDS011;64899;42.660;23.268;2024-03-02T02:53:05;33.10;;;18.50;;
29788;SDS011;64899;42.660;23.268;2024-03-02T02:55:31;40.35;;;19.35;;
29788;SDS011;64899;42.660;23.268;2024-03-02T02:57:56;39.08;;;20.25;;
29788;SDS011;64899;42.660;23.268;2024-03-02T03:00:22;41.92;;;21.58;;
29788;SDS011;64899;42.660;23.268;2024-03-02T03:02:48;42.55;;;22.70;;
29788;SDS011;64899;42.660;23.268;2024-03-02T03:05:14;42.45;;;22.50;;
29788;SDS011;64899;42.660;23.268;2024-03-02T03:07:40;48.85;;;22.95;;
29788;SDS011;64899;42.660;23.268;2024-03-02T03:10:06;42.50;;;23.17;;
29788;SDS011;64899;42.660;23.268;2024-03-02T03:12:33;46.08;;;23.83;;
29788;SDS011;64899;42.660;23.268;2024-03-02T03:14:58;45.38;;;24.58;;
29788;SDS011;64899;42.660;23.268;2024-03-02T03:17:25;48.80;;;25.33;;
29788;SDS011;64899;42.660;23.268;2024-03-02T03:19:50;55.90;;;26.15;;
29788;SDS011;64899;42.660;23.268;2024-03-02T03:22:16;49.25;;;27.23;;
29788;SDS011;64899;42.660;23.268;2024-03-02T03:24:42;51.55;;;26.58;;
29788;SDS011;64899;42.660;23.268;2024-03-02T03:27:07;54.60;;;26.80;;
29788;SDS011;64899;42.660;23.268;2024-03-02T03:29:32;53.78;;;27.27;;
29788;SDS011;64899;42.660;23.268;2024-03-02T03:31:58;48.00;;;26.48;;
29788;SDS011;64899;42.660;23.268;2024-03-02T03:34:23;50.92;;;27.15;;
29788;SDS011;64899;42.660;23.268;2024-03-02T03:36:48;51.33;;;27.73;;
29788;SDS011;64899;42.660;23.268;2024-03-02T03:39:14;50.30;;;27.15;;
29788;SDS011;64899;42.660;23.268;2024-03-02T03:41:42;52.97;;;28.00;;
29788;SDS011;64899;42.660;23.268;2024-03-02T03:44:07;55.15;;;28.00;;
29788;SDS011;64899;42.660;23.268;2024-03-02T03:46:33;57.22;;;28.33;;
29788;SDS011;64899;42.660;23.268;2024-03-02T03:48:58;52.38;;;28.70;;
29788;SDS011;64899;42.660;23.268;2024-03-02T03:51:24;52.75;;;27.83;;
29788;SDS011;64899;42.660;23.268;2024-03-02T03:53:49;56.33;;;27.60;;
29788;SDS011;64899;42.660;23.268;2024-03-02T03:56:14;55.53;;;29.08;;
29788;SDS011;64899;42.660;23.268;2024-03-02T03:58:40;52.13;;;28.77;;
29788;SDS011;64899;42.660;23.268;2024-03-02T04:01:05;53.28;;;27.75;;
29788;SDS011;64899;42.660;23.268;2024-03-02T04:03:30;49.70;;;27.30;;
29788;SDS011;64899;42.660;23.268;2024-03-02T04:05:56;55.97;;;27.63;;
29788;SDS011;64899;42.660;23.268;2024-03-02T04:08:21;48.97;;;27.40;;
29788;SDS011;64899;42.660;23.268;2024-03-02T04:10:47;57.33;;;29.17;;
29788;SDS011;64899;42.660;23.268;2024-03-02T04:13:12;54.92;;;29.77;;
29788;SDS011;64899;42.660;23.268;2024-03-02T04:15:37;56.78;;;29.63;;
29788;SDS011;64899;42.660;23.268;2024-03-02T04:18:03;54.65;;;28.52;;
29788;SDS011;64899;42.660;23.268;2024-03-02T04:20:28;54.35;;;30.83;;
29788;SDS011;64899;42.660;23.268;2024-03-02T04:22:55;60.13;;;28.92;;
29788;SDS011;64899;42.660;23.268;2024-03-02T04:25:20;55.15;;;29.17;;
29788;SDS011;64899;42.660;23.268;2024-03-02T04:27:46;53.40;;;28.55;;
29788;SDS011;64899;42.660;23.268;2024-03-02T04:30:12;61.40;;;30.10;;
29788;SDS011;64899;42.660;23.268;2024-03-02T04:32:37;54.70;;;29.20;;
29788;SDS011;64899;42.660;23.268;2024-03-02T04:35:03;59.47;;;29.65;;
29788;SDS011;64899;42.660;23.268;2024-03-02T04:37:30;61.47;;;31.08;;
29788;SDS011;64899;42.660;23.268;2024-03-02T04:39:56;59.28;;;29.60;;
29788;SDS011;64899;42.660;23.268;2024-03-02T04:42:21;54.83;;;27.73;;
29788;SDS011;64899;42.660;23.268;2024-03-02T04:44:47;57.40;;;30.15;;
29788;SDS011;64899;42.660;23.268;2024-03-02T04:47:13;53.28;;;28.55;;
29788;SDS011;64899;42.660;23.268;2024-03-02T04:49:38;55.35;;;29.90;;
29788;SDS011;64899;42.660;23.268;2024-03-02T04:52:03;55.13;;;29.20;;
29788;SDS011;64899;42.660;23.268;2024-03-02T04:54:29;57.97;;;31.88;;
29788;SDS011;64899;42.660;23.268;2024-03-02T04:56:54;58.58;;;30.40;;
29788;SDS011;64899;42.660;23.268;2024-03-02T04:59:19;54.70;;;28.90;;
29788;SDS011;64899;42.660;23.268;2024-03-02T05:01:45;59.03;;;29.05;;
29788;SDS011;64899;42.660;23.268;2024-03-02T05:04:11;61.38;;;28.60;;
29788;SDS011;64899;42.660;23.268;2024-03-02T05:06:39;55.10;;;28.23;;
29788;SDS011;64899;42.660;23.268;2024-03-02T05:09:10;59.85;;;30.23;;
29788;SDS011;64899;42.660;23.268;2024-03-02T05:11:35;63.13;;;31.00;;
29788;SDS011;64899;42.660;23.268;2024-03-02T05:14:06;62.42;;;30.55;;
29788;SDS011;64899;42.660;23.268;2024-03-02T05:16:35;54.25;;;29.80;;
29788;SDS011;64899;42.660;23.268;2024-03-02T05:19:01;58.85;;;31.95;;
29788;SDS011;64899;42.660;23.268;2024-03-02T05:21:27;57.85;;;30.65;;
29788;SDS011;64899;42.660;23.268;2024-03-02T05:23:52;59.42;;;30.92;;
29788;SDS011;64899;42.660;23.268;2024-03-02T05:26:17;64.15;;;32.83;;
29788;SDS011;64899;42.660;23.268;2024-03-02T05:28:43;67.00;;;33.13;;
29788;SDS011;64899;42.660;23.268;2024-03-02T05:31:11;61.22;;;31.60;;
29788;SDS011;64899;42.660;23.268;2024-03-02T05:33:39;66.28;;;34.05;;
29788;SDS011;64899;42.660;23.268;2024-03-02T05:36:05;63.70;;;32.58;;
29788;SDS011;64899;42.660;23.268;2024-03-02T05:38:31;58.53;;;31.00;;
29788;SDS011;64899;42.660;23.268;2024-03-02T05:40:56;64.30;;;32.92;;
29788;SDS011;64899;42.660;23.268;2024-03-02T05:43:22;60.22;;;32.25;;
29788;SDS011;64899;42.660;23.268;2024-03-02T05:45:47;65.50;;;33.72;;
29788;SDS011;64899;42.660;23.268;2024-03-02T05:48:12;57.88;;;30.88;;
29788;SDS011;64899;42.660;23.268;2024-03-02T05:50:38;62.97;;;31.70;;
29788;SDS011;64899;42.660;23.268;2024-03-02T05:53:03;61.78;;;32.53;;
29788;SDS011;64899;42.660;23.268;2024-03-02T05:55:28;60.38;;;31.42;;
29788;SDS011;64899;42.660;23.268;2024-03-02T05:57:54;57.80;;;31.52;;
29788;SDS011;64899;42.660;23.268;2024-03-02T06:00:28;60.72;;;31.40;;
29788;SDS011;64899;42.660;23.268;2024-03-02T06:02:53;67.82;;;32.45;;
29788;SDS011;64899;42.660;23.268;2024-03-02T06:05:19;59.40;;;29.98;;
29788;SDS011;64899;42.660;23.268;2024-03-02T06:07:44;61.25;;;32.17;;
29788;SDS011;64899;42.660;23.268;2024-03-02T06:10:10;64.97;;;33.42;;
29788;SDS011;64899;42.660;23.268;2024-03-02T06:12:36;57.08;;;31.23;;
29788;SDS011;64899;42.660;23.268;2024-03-02T06:15:01;64.05;;;32.97;;
29788;SDS011;64899;42.660;23.268;2024-03-02T06:17:26;64.55;;;32.63;;
29788;SDS011;64899;42.660;23.268;2024-03-02T06:19:52;66.75;;;33.67;;
29788;SDS011;64899;42.660;23.268;2024-03-02T06:22:17;61.58;;;32.72;;
29788;SDS011;64899;42.660;23.268;2024-03-02T06:24:44;61.22;;;33.15;;
29788;SDS011;64899;42.660;23.268;2024-03-02T06:27:09;63.65;;;33.13;;
29788;SDS011;64899;42.660;23.268;2024-03-02T06:29:35;63.83;;;33.92;;
29788;SDS011;64899;42.660;23.268;2024-03-02T06:32:00;60.15;;;33.85;;
29788;SDS011;64899;42.660;23.268;2024-03-02T06:34:25;59.50;;;32.40;;
29788;SDS011;64899;42.660;23.268;2024-03-02T06:36:51;65.15;;;33.63;;
29788;SDS011;64899;42.660;23.268;2024-03-02T06:39:16;66.50;;;34.63;;
29788;SDS011;64899;42.660;23.268;2024-03-02T06:41:42;61.45;;;31.80;;
29788;SDS011;64899;42.660;23.268;2024-03-02T06:44:08;70.72;;;34.22;;
29788;SDS011;64899;42.660;23.268;2024-03-02T06:46:33;63.95;;;33.72;;
29788;SDS011;64899;42.660;23.268;2024-03-02T06:48:58;62.00;;;31.70;;
29788;SDS011;64899;42.660;23.268;2024-03-02T06:51:24;55.70;;;30.63;;
29788;SDS011;64899;42.660;23.268;2024-03-02T06:53:49;52.47;;;27.83;;
29788;SDS011;64899;42.660;23.268;2024-03-02T06:56:14;54.17;;;29.08;;
29788;SDS011;64899;42.660;23.268;2024-03-02T06:58:40;53.30;;;27.58;;
29788;SDS011;64899;42.660;23.268;2024-03-02T07:01:05;50.53;;;26.63;;
29788;SDS011;64899;42.660;23.268;2024-03-02T07:03:31;50.33;;;26.23;;
29788;SDS011;64899;42.660;23.268;2024-03-02T07:05:57;51.20;;;27.95;;
29788;SDS011;64899;42.660;23.268;2024-03-02T07:08:23;49.05;;;26.98;;
29788;SDS011;64899;42.660;23.268;2024-03-02T07:10:48;47.78;;;22.75;;
29788;SDS011;64899;42.660;23.268;2024-03-02T07:13:14;44.88;;;22.58;;
29788;SDS011;64899;42.660;23.268;2024-03-02T07:15:39;50.35;;;23.45;;
29788;SDS011;64899;42.660;23.268;2024-03-02T07:18:23;41.33;;;22.05;;
29788;SDS011;64899;42.660;23.268;2024-03-02T07:20:49;37.10;;;21.02;;
29788;SDS011;64899;42.660;23.268;2024-03-02T07:23:14;37.35;;;20.33;;
29788;SDS011;64899;42.660;23.268;2024-03-02T07:25:40;39.40;;;20.00;;
29788;SDS011;64899;42.660;23.268;2024-03-02T07:28:05;38.30;;;18.90;;
29788;SDS011;64899;42.660;23.268;2024-03-02T07:30:32;39.17;;;20.13;;
29788;SDS011;64899;42.660;23.268;2024-03-02T07:32:57;42.38;;;21.58;;
29788;SDS011;64899;42.660;23.268;2024-03-02T07:35:23;34.53;;;20.15;;
29788;SDS011;64899;42.660;23.268;2024-03-02T07:37:52;35.45;;;19.35;;
29788;SDS011;64899;42.660;23.268;2024-03-02T07:40:19;35.58;;;18.73;;
29788;SDS011;64899;42.660;23.268;2024-03-02T07:42:45;37.22;;;20.17;;
29788;SDS011;64899;42.660;23.268;2024-03-02T07:45:10;35.20;;;19.42;;
29788;SDS011;64899;42.660;23.268;2024-03-02T07:47:36;42.75;;;20.67;;
29788;SDS011;64899;42.660;23.268;2024-03-02T07:50:02;35.35;;;19.40;;
29788;SDS011;64899;42.660;23.268;2024-03-02T07:52:28;38.13;;;20.38;;
29788;SDS011;64899;42.660;23.268;2024-03-02T07:54:53;36.80;;;20.40;;
29788;SDS011;64899;42.660;23.268;2024-03-02T07:57:20;38.40;;;20.63;;
29788;SDS011;64899;42.660;23.268;2024-03-02T07:59:45;45.45;;;22.02;;
29788;SDS011;64899;42.660;23.268;2024-03-02T08:02:11;40.15;;;21.70;;
29788;SDS011;64899;42.660;23.268;2024-03-02T08:04:37;40.83;;;21.60;;
29788;SDS011;64899;42.660;23.268;2024-03-02T08:07:03;42.15;;;22.42;;
29788;SDS011;64899;42.660;23.268;2024-03-02T08:09:28;45.83;;;22.80;;
29788;SDS011;64899;42.660;23.268;2024-03-02T08:11:54;42.00;;;22.27;;
29788;SDS011;64899;42.660;23.268;2024-03-02T08:14:19;42.13;;;22.48;;
29788;SDS011;64899;42.660;23.268;2024-03-02T08:16:44;40.10;;;22.27;;
29788;SDS011;64899;42.660;23.268;2024-03-02T08:19:10;42.63;;;23.63;;
29788;SDS011;64899;42.660;23.268;2024-03-02T08:21:36;44.70;;;24.52;;
29788;SDS011;64899;42.660;23.268;2024-03-02T08:24:02;45.03;;;23.23;;
29788;SDS011;64899;42.660;23.268;2024-03-02T08:26:27;47.17;;;23.83;;
29788;SDS011;64899;42.660;23.268;2024-03-02T08:28:54;50.08;;;25.23;;
29788;SDS011;64899;42.660;23.268;2024-03-02T08:31:20;48.00;;;25.65;;
29788;SDS011;64899;42.660;23.268;2024-03-02T08:33:45;52.67;;;25.85;;
29788;SDS011;64899;42.660;23.268;2024-03-02T08:36:11;49.05;;;24.88;;
29788;SDS011;64899;42.660;23.268;2024-03-02T08:38:37;47.53;;;24.35;;
29788;SDS011;64899;42.660;23.268;2024-03-02T08:41:02;54.33;;;25.95;;
29788;SDS011;64899;42.660;23.268;2024-03-02T08:43:28;49.85;;;25.35;;
29788;SDS011;64899;42.660;23.268;2024-03-02T08:45:54;44.70;;;23.17;;
29788;SDS011;64899;42.660;23.268;2024-03-02T08:48:19;43.70;;;23.48;;
29788;SDS011;64899;42.660;23.268;2024-03-02T08:50:45;49.75;;;24.48;;
29788;SDS011;64899;42.660;23.268;2024-03-02T08:53:11;44.83;;;22.60;;
29788;SDS011;64899;42.660;23.268;2024-03-02T08:55:36;40.08;;;21.15;;
29788;SDS011;64899;42.660;23.268;2024-03-02T08:58:02;39.33;;;21.15;;
29788;SDS011;64899;42.660;23.268;2024-03-02T09:00:27;40.40;;;21.75;;
29788;SDS011;64899;42.660;23.268;2024-03-02T09:02:53;44.05;;;22.75;;
29788;SDS011;64899;42.660;23.268;2024-03-02T09:05:18;44.65;;;23.05;;
29788;SDS011;64899;42.660;23.268;2024-03-02T09:07:44;36.17;;;20.38;;
29788;SDS011;64899;42.660;23.268;2024-03-02T09:10:10;41.97;;;21.05;;
29788;SDS011;64899;42.660;23.268;2024-03-02T09:12:35;40.33;;;20.05;;
29788;SDS011;64899;42.660;23.268;2024-03-02T09:15:01;38.53;;;20.58;;
29788;SDS011;64899;42.660;23.268;2024-03-02T09:17:28;42.47;;;20.80;;
29788;SDS011;64899;42.660;23.268;2024-03-02T09:19:54;37.63;;;20.42;;
29788;SDS011;64899;42.660;23.268;2024-03-02T09:22:19;32.80;;;18.25;;
29788;SDS011;64899;42.660;23.268;2024-03-02T09:24:44;34.63;;;18.35;;
29788;SDS011;64899;42.660;23.268;2024-03-02T09:27:10;38.40;;;20.50;;
29788;SDS011;64899;42.660;23.268;2024-03-02T09:29:36;41.88;;;20.80;;
29788;SDS011;64899;42.660;23.268;2024-03-02T09:32:01;37.45;;;20.15;;
29788;SDS011;64899;42.660;23.268;2024-03-02T09:34:27;40.47;;;20.15;;
29788;SDS011;64899;42.660;23.268;2024-03-02T09:36:52;42.17;;;20.77;;
29788;SDS011;64899;42.660;23.268;2024-03-02T09:39:17;36.63;;;18.80;;
29788;SDS011;64899;42.660;23.268;2024-03-02T09:41:43;35.83;;;18.48;;
29788;SDS011;64899;42.660;23.268;2024-03-02T09:44:09;38.88;;;20.38;;
29788;SDS011;64899;42.660;23.268;2024-03-02T09:46:34;33.80;;;18.27;;
29788;SDS011;64899;42.660;23.268;2024-03-02T09:49:01;36.45;;;19.42;;
29788;SDS011;64899;42.660;23.268;2024-03-02T09:51:27;34.75;;;18.20;;
29788;SDS011;64899;42.660;23.268;2024-03-02T09:53:52;31.92;;;19.23;;
29788;SDS011;64899;42.660;23.268;2024-03-02T09:56:20;32.58;;;16.65;;
29788;SDS011;64899;42.660;23.268;2024-03-02T09:58:46;31.17;;;16.75;;
29788;SDS011;64899;42.660;23.268;2024-03-02T10:01:11;32.65;;;17.25;;
29788;SDS011;64899;42.660;23.268;2024-03-02T10:03:37;34.75;;;18.25;;
29788;SDS011;64899;42.660;23.268;2024-03-02T10:08:46;37.60;;;18.70;;
29788;SDS011;64899;42.660;23.268;2024-03-02T10:11:26;33.95;;;17.92;;
29788;SDS011;64899;42.660;23.268;2024-03-02T10:14:09;41.08;;;20.60;;
29788;SDS011;64899;42.660;23.268;2024-03-02T10:16:41;42.00;;;21.88;;
29788;SDS011;64899;42.660;23.268;2024-03-02T10:21:43;37.70;;;19.83;;
29788;SDS011;64899;42.660;23.268;2024-03-02T10:24:09;36.92;;;21.38;;
29788;SDS011;64899;42.660;23.268;2024-03-02T10:26:34;40.30;;;22.08;;
29788;SDS011;64899;42.660;23.268;2024-03-02T10:29:00;38.00;;;21.63;;
29788;SDS011;64899;42.660;23.268;2024-03-02T10:31:25;48.85;;;24.08;;
29788;SDS011;64899;42.660;23.268;2024-03-02T10:33:54;44.28;;;23.73;;
29788;SDS011;64899;42.660;23.268;2024-03-02T10:36:19;42.17;;;22.73;;
29788;SDS011;64899;42.660;23.268;2024-03-02T10:38:45;44.50;;;24.60;;
29788;SDS011;64899;42.660;23.268;2024-03-02T10:41:16;42.30;;;23.75;;
29788;SDS011;64899;42.660;23.268;2024-03-02T10:43:42;43.72;;;23.65;;
29788;SDS011;64899;42.660;23.268;2024-03-02T10:46:08;46.75;;;24.70;;
29788;SDS011;64899;42.660;23.268;2024-03-02T10:48:34;46.40;;;24.48;;
29788;SDS011;64899;42.660;23.268;2024-03-02T10:51:00;44.33;;;22.73;;
29788;SDS011;64899;42.660;23.268;2024-03-02T10:53:27;46.72;;;24.50;;
29788;SDS011;64899;42.660;23.268;2024-03-02T10:55:54;46.53;;;23.88;;
29788;SDS011;64899;42.660;23.268;2024-03-02T10:58:27;47.30;;;23.10;;
29788;SDS011;64899;42.660;23.268;2024-03-02T11:00:58;42.63;;;23.92;;
29788;SDS011;64899;42.660;23.268;2024-03-02T11:03:27;47.75;;;23.85;;
29788;SDS011;64899;42.660;23.268;2024-03-02T11:05:54;47.60;;;24.08;;
29788;SDS011;64899;42.660;23.268;2024-03-02T11:08:20;45.58;;;24.20;;
29788;SDS011;64899;42.660;23.268;2024-03-02T11:10:52;48.17;;;23.85;;
29788;SDS011;64899;42.660;23.268;2024-03-02T11:13:33;48.72;;;26.27;;
29788;SDS011;64899;42.660;23.268;2024-03-02T11:16:01;46.47;;;23.70;;
29788;SDS011;64899;42.660;23.268;2024-03-02T11:18:29;44.95;;;23.70;;
29788;SDS011;64899;42.660;23.268;2024-03-02T11:20:56;50.22;;;24.98;;
29788;SDS011;64899;42.660;23.268;2024-03-02T11:23:31;49.95;;;26.25;;
29788;SDS011;64899;42.660;23.268;2024-03-02T11:26:16;45.28;;;24.15;;
29788;SDS011;64899;42.660;23.268;2024-03-02T11:28:45;46.97;;;24.27;;
29788;SDS011;64899;42.660;23.268;2024-03-02T11:31:10;42.28;;;23.63;;
29788;SDS011;64899;42.660;23.268;2024-03-02T11:33:36;44.17;;;23.02;;
29788;SDS011;64899;42.660;23.268;2024-03-02T11:36:01;43.30;;;23.10;;
29788;SDS011;64899;42.660;23.268;2024-03-02T11:38:27;40.45;;;22.40;;
29788;SDS011;64899;42.660;23.268;2024-03-02T11:40:54;42.10;;;23.02;;
29788;SDS011;64899;42.660;23.268;2024-03-02T11:43:20;42.97;;;23.52;;
29788;SDS011;64899;42.660;23.268;2024-03-02T11:45:45;44.10;;;23.05;;
29788;SDS011;64899;42.660;23.268;2024-03-02T11:48:11;44.20;;;24.90;;
29788;SDS011;64899;42.660;23.268;2024-03-02T11:50:40;46.47;;;24.70;;
29788;SDS011;64899;42.660;23.268;2024-03-02T11:53:07;45.58;;;23.65;;
29788;SDS011;64899;42.660;23.268;2024-03-02T11:55:34;45.58;;;23.65;;
29788;SDS011;64899;42.660;23.268;2024-03-02T11:58:01;41.05;;;22.80;;
29788;SDS011;64899;42.660;23.268;2024-03-02T12:00:27;42.00;;;22.48;;
29788;SDS011;64899;42.660;23.268;2024-03-02T12:03:03;44.72;;;22.85;;
29788;SDS011;64899;42.660;23.268;2024-03-02T12:05:29;45.10;;;22.85;;
29788;SDS011;64899;42.660;23.268;2024-03-02T12:07:56;40.72;;;22.50;;
29788;SDS011;64899;42.660;23.268;2024-03-02T12:10:22;37.05;;;22.20;;
29788;SDS011;64899;42.660;23.268;2024-03-02T12:12:54;40.95;;;23.05;;
29788;SDS011;64899;42.660;23.268;2024-03-02T12:15:22;41.60;;;22.77;;
29788;SDS011;64899;42.660;23.268;2024-03-02T12:17:52;41.30;;;22.23;;
29788;SDS011;64899;42.660;23.268;2024-03-02T12:20:19;43.60;;;23.38;;
29788;SDS011;64899;42.660;23.268;2024-03-02T12:22:44;42.00;;;22.88;;
29788;SDS011;64899;42.660;23.268;2024-03-02T12:25:11;44.15;;;22.77;;
29788;SDS011;64899;42.660;23.268;2024-03-02T12:27:36;44.03;;;22.60;;
29788;SDS011;64899;42.660;23.268;2024-03-02T12:30:02;44.80;;;22.33;;
29788;SDS011;64899;42.660;23.268;2024-03-02T12:32:29;39.75;;;21.17;;
29788;SDS011;64899;42.660;23.268;2024-03-02T12:34:55;42.53;;;23.20;;
29788;SDS011;64899;42.660;23.268;2024-03-02T12:37:20;39.65;;;21.48;;
29788;SDS011;64899;42.660;23.268;2024-03-02T12:39:46;39.00;;;22.42;;
29788;SDS011;64899;42.660;23.268;2024-03-02T12:42:12;42.05;;;21.35;;
29788;SDS011;64899;42.660;23.268;2024-03-02T12:44:37;42.85;;;22.95;;
29788;SDS011;64899;42.660;23.268;2024-03-02T12:47:03;40.17;;;21.08;;
29788;SDS011;64899;42.660;23.268;2024-03-02T12:49:29;39.72;;;21.92;;
29788;SDS011;64899;42.660;23.268;2024-03-02T12:51:55;38.72;;;21.23;;
29788;SDS011;64899;42.660;23.268;2024-03-02T12:54:22;40.17;;;20.67;;
29788;SDS011;64899;42.660;23.268;2024-03-02T12:56:49;36.53;;;20.70;;
29788;SDS011;64899;42.660;23.268;2024-03-02T12:59:19;44.13;;;21.88;;
29788;SDS011;64899;42.660;23.268;2024-03-02T13:01:51;39.78;;;21.90;;
29788;SDS011;64899;42.660;23.268;2024-03-02T13:04:22;38.25;;;20.92;;
29788;SDS011;64899;42.660;23.268;2024-03-02T13:06:51;43.60;;;22.75;;
29788;SDS011;64899;42.660;23.268;2024-03-02T13:09:17;39.65;;;22.15;;
29788;SDS011;64899;42.660;23.268;2024-03-02T13:11:43;35.95;;;21.58;;
29788;SDS011;64899;42.660;23.268;2024-03-02T13:14:10;40.65;;;21.77;;
29788;SDS011;64899;42.660;23.268;2024-03-02T13:16:42;45.70;;;24.30;;
29788;SDS011;64899;42.660;23.268;2024-03-02T13:19:08;39.13;;;22.73;;
29788;SDS011;64899;42.660;23.268;2024-03-02T13:21:36;38.75;;;22.23;;
29788;SDS011;64899;42.660;23.268;2024-03-02T13:24:01;43.58;;;23.92;;
29788;SDS011;64899;42.660;23.268;2024-03-02T13:26:28;40.90;;;22.40;;
29788;SDS011;64899;42.660;23.268;2024-03-02T13:28:53;39.13;;;22.17;;
29788;SDS011;64899;42.660;23.268;2024-03-02T13:31:19;39.20;;;21.95;;
29788;SDS011;64899;42.660;23.268;2024-03-02T13:33:46;42.53;;;22.67;;
29788;SDS011;64899;42.660;23.268;2024-03-02T13:36:11;37.10;;;22.95;;
29788;SDS011;64899;42.660;23.268;2024-03-02T13:38:37;39.80;;;23.40;;
29788;SDS011;64899;42.660;23.268;2024-03-02T13:41:02;42.00;;;23.30;;
29788;SDS011;64899;42.660;23.268;2024-03-02T13:43:28;42.22;;;23.95;;
29788;SDS011;64899;42.660;23.268;2024-03-02T13:45:56;38.03;;;23.23;;
29788;SDS011;64899;42.660;23.268;2024-03-02T13:48:23;36.50;;;21.88;;
29788;SDS011;64899;42.660;23.268;2024-03-02T13:50:50;40.20;;;23.25;;
29788;SDS011;64899;42.660;23.268;2024-03-02T13:53:17;39.30;;;23.58;;
29788;SDS011;64899;42.660;23.268;2024-03-02T13:55:43;41.72;;;23.23;;
29788;SDS011;64899;42.660;23.268;2024-03-02T13:58:08;41.92;;;23.65;;
29788;SDS011;64899;42.660;23.268;2024-03-02T14:00:35;42.95;;;23.27;;
29788;SDS011;64899;42.660;23.268;2024-03-02T14:03:02;39.88;;;23.23;;
29788;SDS011;64899;42.660;23.268;2024-03-02T14:05:28;43.58;;;23.35;;
29788;SDS011;64899;42.660;23.268;2024-03-02T14:07:54;40.17;;;23.80;;